Time;durP1;ratioP1;P1;durP2;ratioP2;P2;SDS_P1;SDS_P2;PMS_P1;PMS_P2;Temp;Humidity;BMP_temperature;BMP_pressure;BME280_temperature;BME280_humidity;BME280_pressure;Samples;Min_cycle;Max_cycle;Signal;HPM_P1;HPM_P2
2023/06/20 00:01:00;;;;;;;17.52;15.68;;;;;;;22.26;66.47;100918.00;3582436;39;20059;-66
2023/06/20 00:03:26;;;;;;;17.52;15.52;;;;;;;22.25;67.06;100916.28;3587270;39;20088;-66
2023/06/20 00:05:52;;;;;;;17.98;15.45;;;;;;;22.23;66.32;100921.94;3590146;39;20539;-66
2023/06/20 00:08:17;;;;;;;16.80;14.60;;;;;;;22.21;65.97;100917.66;3584194;39;20063;-66
2023/06/20 00:10:43;;;;;;;16.83;15.13;;;;;;;22.21;65.85;100921.25;3581303;39;20052;-67
2023/06/20 00:13:08;;;;;;;17.88;14.50;;;;;;;22.19;66.89;100909.59;3585179;39;20286;-67
2023/06/20 00:15:35;;;;;;;16.88;14.25;;;;;;;22.09;66.40;100906.13;3570681;40;20397;-66
2023/06/20 00:18:00;;;;;;;17.50;14.45;;;;;;;22.14;66.43;100911.97;3580935;39;20060;-67
2023/06/20 00:20:29;;;;;;;16.08;14.43;;;;;;;22.13;66.14;100910.22;3582220;39;20344;-67
2023/06/20 00:22:55;;;;;;;15.20;13.48;;;;;;;22.12;65.84;100911.28;3579818;39;20092;-67
2023/06/20 00:25:21;;;;;;;17.80;16.02;;;;;;;22.12;65.87;100911.28;3583434;39;20062;-66
2023/06/20 00:27:47;;;;;;;17.30;14.70;;;;;;;22.09;65.87;100903.38;3586269;39;20071;-67
2023/06/20 00:30:14;;;;;;;15.57;13.63;;;;;;;22.10;66.37;100907.81;3584062;39;20067;-66
2023/06/20 00:32:39;;;;;;;15.18;13.63;;;;;;;22.10;66.03;100912.44;3581243;39;20068;-67
2023/06/20 00:35:05;;;;;;;15.85;14.35;;;;;;;21.77;65.71;100857.63;3574786;40;20111;-67
2023/06/20 00:37:31;;;;;;;16.45;14.68;;;;;;;22.05;66.21;100901.16;3572948;39;20109;-67
2023/06/20 00:39:57;;;;;;;14.65;13.13;;;;;;;22.03;65.87;100907.66;3586742;39;20129;-68
2023/06/20 00:42:24;;;;;;;16.65;14.82;;;;;;;22.05;65.42;100909.38;3583794;39;20058;-68
2023/06/20 00:44:51;;;;;;;14.45;12.68;;;;;;;21.98;65.63;100899.09;3573078;40;20086;-67
2023/06/20 00:47:18;;;;;;;14.75;13.13;;;;;;;22.01;65.53;100898.75;3582890;39;20056;-67
2023/06/20 00:49:50;;;;;;;15.77;13.55;;;;;;;22.06;65.35;100905.59;3582005;39;20052;-68
2023/06/20 00:52:20;;;;;;;13.75;12.35;;;;;;;22.02;65.14;100905.09;3579853;40;20069;-68
2023/06/20 00:54:48;;;;;;;13.80;12.32;;;;;;;22.02;65.20;100908.69;3584002;39;20090;-67
2023/06/20 00:57:17;;;;;;;13.90;12.50;;;;;;;22.01;65.05;100896.03;3581981;40;20062;-67
2023/06/20 00:59:47;;;;;;;15.52;12.52;;;;;;;22.01;65.35;100890.56;3579812;39;20111;-67
2023/06/20 01:02:14;;;;;;;14.15;12.05;;;;;;;21.99;64.65;100889.84;3583393;39;20070;-67
2023/06/20 01:04:44;;;;;;;14.10;12.00;;;;;;;22.00;63.81;100891.56;3583606;39;20064;-67
2023/06/20 01:07:44;;;;;;;15.65;12.43;;;;;;;21.96;64.33;100889.34;3584306;39;20056;-67
2023/06/20 01:10:39;;;;;;;13.68;11.55;;;;;;;21.94;64.24;100875.81;3580408;39;20107;-67
2023/06/20 01:13:24;;;;;;;13.43;12.05;;;;;;;21.99;63.78;100875.31;3582664;39;20129;-67
2023/06/20 01:15:57;;;;;;;14.30;11.57;;;;;;;21.99;63.66;100889.84;3581018;39;20052;-67
2023/06/20 01:18:57;;;;;;;13.18;11.68;;;;;;;21.98;63.93;100890.88;3580182;39;20441;-67
2023/06/20 01:21:55;;;;;;;12.88;11.52;;;;;;;21.97;64.33;100885.56;3583671;39;20047;-67
2023/06/20 01:24:34;;;;;;;13.93;11.90;;;;;;;21.89;64.52;100864.53;3582558;39;20095;-67
2023/06/20 01:27:15;;;;;;;13.20;11.60;;;;;;;21.98;64.41;100877.19;3584695;39;20068;-67
2023/06/20 01:29:57;;;;;;;13.50;12.13;;;;;;;21.98;63.84;100881.81;3582228;39;20064;-67
2023/06/20 01:32:26;;;;;;;13.93;11.77;;;;;;;21.97;64.42;100880.94;3581240;39;20066;-68
2023/06/20 01:35:05;;;;;;;14.30;12.38;;;;;;;21.95;63.78;100871.22;3583367;39;20472;-67
2023/06/20 01:37:38;;;;;;;14.82;11.77;;;;;;;21.95;63.74;100861.13;3572205;39;20426;-68
2023/06/20 01:40:08;;;;;;;13.73;12.23;;;;;;;21.96;64.03;100873.75;3583735;39;20070;-68
2023/06/20 01:42:38;;;;;;;15.15;12.43;;;;;;;21.95;63.52;100872.06;3576827;39;20058;-68
2023/06/20 01:45:08;;;;;;;15.57;12.95;;;;;;;21.93;62.96;100865.88;3584699;39;20063;-68
2023/06/20 01:47:40;;;;;;;13.25;11.85;;;;;;;21.94;62.63;100862.13;3582582;39;20686;-68
2023/06/20 01:50:09;;;;;;;13.50;12.07;;;;;;;21.94;63.12;100864.00;3584752;39;20091;-68
2023/06/20 01:52:38;;;;;;;13.52;11.77;;;;;;;21.94;63.02;100853.91;3583388;39;20494;-68
2023/06/20 01:55:08;;;;;;;12.75;11.25;;;;;;;21.92;62.45;100850.50;3583047;39;20055;-67
2023/06/20 01:57:37;;;;;;;13.77;11.57;;;;;;;21.90;62.89;100851.69;3583729;39;20068;-67
2023/06/20 02:00:09;;;;;;;12.90;11.63;;;;;;;21.89;62.20;100850.84;3590307;39;20486;-68
2023/06/20 02:02:36;;;;;;;13.43;11.10;;;;;;;21.90;62.84;100851.69;3583854;39;20157;-67
2023/06/20 02:05:06;;;;;;;12.88;11.57;;;;;;;21.90;62.43;100841.59;3583125;39;20158;-67
2023/06/20 02:07:37;;;;;;;13.55;11.30;;;;;;;21.90;61.69;100852.53;3583414;39;21529;-67
2023/06/20 02:10:04;;;;;;;12.27;11.02;;;;;;;21.89;61.13;100847.25;3582331;39;20064;-66
2023/06/20 02:12:34;;;;;;;12.02;10.73;;;;;;;21.90;61.73;100847.06;3583701;39;20048;-66
2023/06/20 02:15:00;;;;;;;13.48;11.15;;;;;;;21.90;61.32;100847.06;3585077;39;20065;-66
2023/06/20 02:17:29;;;;;;;12.98;11.25;;;;;;;21.85;61.47;100838.53;3581765;39;20148;-66
2023/06/20 02:19:55;;;;;;;12.25;10.80;;;;;;;21.90;61.13;100840.75;3583082;39;20048;-67
2023/06/20 02:22:26;;;;;;;11.45;10.35;;;;;;;21.89;61.15;100839.88;3586337;39;20138;-66
2023/06/20 02:24:59;;;;;;;12.68;11.20;;;;;;;21.91;61.39;100842.44;3585464;39;20088;-67
2023/06/20 02:27:26;;;;;;;13.77;11.77;;;;;;;21.88;61.40;100843.63;3581074;39;20071;-66
2023/06/20 02:29:56;;;;;;;11.88;10.68;;;;;;;21.87;61.77;100841.06;3581153;39;20327;-66
2023/06/20 02:32:26;;;;;;;14.25;10.65;;;;;;;21.85;61.36;100854.94;3583513;39;20060;-66
2023/06/20 02:34:56;;;;;;;12.05;10.88;;;;;;;21.85;61.73;100845.84;3583997;39;20086;-66
2023/06/20 02:37:28;;;;;;;12.68;10.40;;;;;;;21.83;61.01;100853.38;3582071;39;20060;-66
2023/06/20 02:39:55;;;;;;;11.85;10.63;;;;;;;21.83;61.20;100854.25;3584035;39;20437;-66
2023/06/20 02:42:21;;;;;;;12.40;10.90;;;;;;;21.81;61.47;100853.53;3581987;39;20052;-66
2023/06/20 02:44:47;;;;;;;11.70;10.40;;;;;;;21.79;61.75;100852.88;3588475;39;20063;-66
2023/06/20 02:47:35;;;;;;;12.52;11.10;;;;;;;21.77;61.86;100846.69;3585255;39;20141;-66
2023/06/20 02:50:46;;;;;;;13.10;10.65;;;;;;;21.75;61.45;100851.47;3583390;39;20059;-68
2023/06/20 02:53:29;;;;;;;11.30;10.15;;;;;;;21.64;61.08;100827.19;3584083;39;20055;-66
2023/06/20 02:56:06;;;;;;;11.88;10.68;;;;;;;21.69;61.26;100849.41;3583605;39;20418;-66
2023/06/20 02:58:37;;;;;;;14.27;11.57;;;;;;;20.93;61.37;100721.78;3580678;39;20052;-66
2023/06/20 03:01:03;;;;;;;13.88;10.25;;;;;;;21.67;61.50;100843.25;3581834;39;20350;-67
2023/06/20 03:03:41;;;;;;;13.80;10.63;;;;;;;21.68;60.97;100842.22;3585951;39;20064;-66
2023/06/20 03:06:11;;;;;;;13.60;10.65;;;;;;;21.66;62.02;100838.78;3583282;39;20097;-66
2023/06/20 03:08:49;;;;;;;11.77;10.48;;;;;;;21.65;61.87;100832.47;3582278;39;20069;-66
2023/06/20 03:11:15;;;;;;;11.60;10.43;;;;;;;21.61;61.49;100828.34;3585643;39;20307;-66
2023/06/20 03:13:41;;;;;;;11.32;10.23;;;;;;;21.61;62.21;100827.50;3584147;39;20056;-68
2023/06/20 03:16:09;;;;;;;13.27;11.00;;;;;;;21.54;62.04;100819.97;3581233;39;20189;-66
2023/06/20 03:18:36;;;;;;;12.32;11.00;;;;;;;21.54;62.06;100830.91;3581885;39;20059;-66
2023/06/20 03:21:02;;;;;;;12.35;10.32;;;;;;;21.52;61.90;100832.94;3584560;39;20150;-66
2023/06/20 03:23:28;;;;;;;12.50;11.20;;;;;;;21.51;62.67;100831.22;3581201;39;20576;-65
2023/06/20 03:25:53;;;;;;;11.85;10.65;;;;;;;21.48;62.19;100831.56;3583641;39;20357;-66
2023/06/20 03:28:19;;;;;;;12.25;10.93;;;;;;;21.45;61.85;100836.50;3578008;39;20052;-66
2023/06/20 03:30:44;;;;;;;11.52;10.32;;;;;;;21.42;61.94;100837.69;3583101;39;20063;-65
2023/06/20 03:33:10;;;;;;;11.57;10.38;;;;;;;21.39;62.01;100838.03;3583935;39;20678;-64
2023/06/20 03:35:36;;;;;;;12.70;10.77;;;;;;;21.30;62.32;100823.41;3581910;39;20493;-64
2023/06/20 03:38:02;;;;;;;12.80;10.73;;;;;;;21.40;61.76;100845.19;3582849;39;20074;-65
2023/06/20 03:40:27;;;;;;;12.43;11.20;;;;;;;21.36;62.06;100848.44;3579686;39;20055;-65
2023/06/20 03:42:53;;;;;;;11.57;10.30;;;;;;;21.37;61.50;100850.16;3585376;39;20531;-65
2023/06/20 03:45:19;;;;;;;11.98;10.77;;;;;;;21.33;62.04;100849.59;3585247;39;20129;-65
2023/06/20 03:47:44;;;;;;;11.55;10.23;;;;;;;21.34;62.27;100862.22;3584835;39;20484;-65
2023/06/20 03:50:10;;;;;;;12.38;11.18;;;;;;;21.30;62.16;100871.78;3587772;39;20062;-65
2023/06/20 03:52:36;;;;;;;12.60;11.18;;;;;;;21.27;62.47;100877.59;3588887;39;20053;-65
2023/06/20 03:55:01;;;;;;;11.43;10.25;;;;;;;21.29;62.63;100872.81;3586146;39;20052;-66
2023/06/20 03:57:27;;;;;;;12.32;11.05;;;;;;;21.24;62.99;100873.28;3583838;39;20400;-65
2023/06/20 03:59:53;;;;;;;12.70;11.50;;;;;;;21.24;63.05;100867.81;3583549;39;20075;-65
2023/06/20 04:02:18;;;;;;;11.93;10.70;;;;;;;21.17;63.13;100866.78;3585053;39;20406;-66
2023/06/20 04:04:49;;;;;;;11.68;10.48;;;;;;;21.16;63.19;100867.81;3579773;39;20067;-65
2023/06/20 04:07:18;;;;;;;11.88;10.68;;;;;;;21.21;63.11;100879.09;3581235;39;20116;-65
2023/06/20 04:09:50;;;;;;;12.70;10.93;;;;;;;21.23;63.61;100876.22;3580092;39;20092;-64
2023/06/20 04:12:17;;;;;;;13.02;11.10;;;;;;;21.22;62.86;100869.03;3586971;39;20048;-65
2023/06/20 04:14:42;;;;;;;13.80;11.55;;;;;;;21.25;63.05;100869.56;3592599;39;20389;-65
2023/06/20 04:17:08;;;;;;;13.43;11.80;;;;;;;20.97;63.23;100816.97;3585692;40;20058;-65
2023/06/20 04:19:34;;;;;;;14.77;12.13;;;;;;;21.27;63.56;100861.19;3584675;40;20067;-64
2023/06/20 04:22:00;;;;;;;13.80;11.18;;;;;;;21.33;63.74;100849.59;3588184;39;20707;-65
2023/06/20 04:24:25;;;;;;;13.00;11.70;;;;;;;21.35;63.60;100853.06;3590310;39;20047;-65
2023/06/20 04:26:52;;;;;;;14.27;11.95;;;;;;;21.40;63.12;100852.56;3582955;39;20073;-65
2023/06/20 04:29:18;;;;;;;14.38;11.30;;;;;;;21.37;62.83;100834.59;3591094;39;20051;-65
2023/06/20 04:31:44;;;;;;;13.13;11.35;;;;;;;21.43;62.82;100844.03;3585731;39;20066;-65
2023/06/20 04:34:09;;;;;;;15.65;11.45;;;;;;;21.46;62.77;100850.00;3591802;39;20434;-66
2023/06/20 04:36:35;;;;;;;14.35;12.63;;;;;;;21.51;62.30;100846.78;3588145;39;20067;-65
2023/06/20 04:39:01;;;;;;;14.85;12.57;;;;;;;21.56;62.53;100850.72;3588376;39;20077;-66
2023/06/20 04:41:27;;;;;;;13.93;12.10;;;;;;;21.60;62.64;100850.38;3585503;39;20378;-66
2023/06/20 04:43:52;;;;;;;13.48;11.75;;;;;;;21.66;62.38;100850.63;3587126;39;20052;-66
2023/06/20 04:46:18;;;;;;;14.00;12.27;;;;;;;21.73;61.94;100835.22;3588102;39;20063;-65
2023/06/20 04:48:45;;;;;;;14.10;12.60;;;;;;;21.81;62.06;100837.13;3575669;39;20127;-65
2023/06/20 04:51:11;;;;;;;13.88;12.00;;;;;;;21.88;62.05;100837.31;3584610;39;20424;-66
2023/06/20 04:53:37;;;;;;;13.63;12.20;;;;;;;21.97;61.40;100831.66;3584210;39;20072;-65
2023/06/20 04:56:04;;;;;;;13.93;11.80;;;;;;;22.00;61.06;100841.44;3585634;39;20351;-65
2023/06/20 04:58:30;;;;;;;13.90;12.45;;;;;;;22.08;61.87;100837.88;3583562;39;20143;-66
2023/06/20 05:00:57;;;;;;;13.45;12.05;;;;;;;22.16;61.25;100840.63;3584705;39;20275;-66
2023/06/20 05:03:24;;;;;;;14.85;11.55;;;;;;;22.21;61.29;100821.81;3583259;39;20080;-65
2023/06/20 05:05:51;;;;;;;14.10;11.18;;;;;;;22.30;61.22;100826.28;3582506;39;20130;-65
2023/06/20 05:08:16;;;;;;;15.93;11.80;;;;;;;22.23;60.95;100808.78;3579316;39;20067;-65
2023/06/20 05:10:42;;;;;;;13.50;11.07;;;;;;;22.50;61.22;100814.97;3584825;39;20404;-65
2023/06/20 05:13:08;;;;;;;12.57;10.52;;;;;;;22.61;61.20;100809.09;3584526;39;20059;-65
2023/06/20 05:15:33;;;;;;;11.30;9.93;;;;;;;22.69;61.03;100806.34;3582188;39;20060;-65
2023/06/20 05:17:59;;;;;;;11.80;9.10;;;;;;;22.80;60.88;100800.50;3585139;39;20430;-66
2023/06/20 05:20:24;;;;;;;9.40;8.38;;;;;;;22.92;61.50;100804.56;3582670;39;20052;-66
2023/06/20 05:22:50;;;;;;;10.38;8.48;;;;;;;23.04;60.91;100798.75;3585417;39;20085;-66
2023/06/20 05:25:15;;;;;;;8.75;7.72;;;;;;;23.17;60.74;100807.28;3583584;39;20059;-65
2023/06/20 05:27:42;;;;;;;7.45;6.75;;;;;;;23.30;61.07;100795.72;3586042;39;20127;-66
2023/06/20 05:30:08;;;;;;;8.45;6.28;;;;;;;23.35;60.64;100796.91;3584904;39;20056;-67
2023/06/20 05:32:35;;;;;;;6.60;5.72;;;;;;;23.43;61.52;100797.88;3581627;39;20090;-67
2023/06/20 05:35:01;;;;;;;8.98;6.07;;;;;;;23.49;61.31;100799.91;3583730;39;20408;-67
2023/06/20 05:37:30;;;;;;;5.43;5.03;;;;;;;23.58;60.75;100794.19;3582354;39;20086;-67
2023/06/20 05:39:56;;;;;;;5.57;5.07;;;;;;;23.62;61.17;100794.69;3583795;39;20060;-67
2023/06/20 05:42:22;;;;;;;5.57;5.07;;;;;;;23.66;60.75;100798.81;3583747;39;20129;-67
2023/06/20 05:44:48;;;;;;;5.38;4.90;;;;;;;23.70;61.20;100796.59;3585084;39;20047;-67
2023/06/20 05:47:17;;;;;;;5.18;4.68;;;;;;;23.74;60.63;100793.28;3585389;39;20355;-67
2023/06/20 05:49:44;;;;;;;5.95;5.15;;;;;;;23.77;60.73;100787.44;3585066;39;20197;-66
2023/06/20 05:52:10;;;;;;;6.88;4.85;;;;;;;23.28;60.68;100708.16;3584519;39;20235;-67
2023/06/20 05:54:36;;;;;;;5.03;4.50;;;;;;;23.83;61.23;100802.31;3585526;39;20078;-65
2023/06/20 05:57:02;;;;;;;5.95;4.38;;;;;;;23.88;61.03;100804.50;3585474;39;20052;-68
2023/06/20 05:59:28;;;;;;;4.80;4.40;;;;;;;23.88;61.36;100827.31;3585486;39;20279;-67
2023/06/20 06:01:53;;;;;;;4.25;3.90;;;;;;;23.85;61.28;100803.84;3574250;39;20262;-68
2023/06/20 06:04:19;;;;;;;4.70;4.30;;;;;;;23.88;61.43;100815.50;3583698;39;20063;-68
2023/06/20 06:06:45;;;;;;;6.45;4.85;;;;;;;23.72;61.69;100792.59;3581662;39;20766;-68
2023/06/20 06:09:11;;;;;;;6.60;4.90;;;;;;;23.74;61.98;100820.72;3572308;40;20052;-68
2023/06/20 06:11:36;;;;;;;5.20;4.72;;;;;;;23.65;61.98;100819.03;3584193;39;20068;-68
2023/06/20 06:14:02;;;;;;;4.90;4.40;;;;;;;23.73;62.39;100824.53;3585483;39;20051;-68
2023/06/20 06:16:28;;;;;;;6.05;4.45;;;;;;;23.79;62.54;100829.28;3583299;39;20066;-68
2023/06/20 06:18:53;;;;;;;5.22;4.75;;;;;;;23.83;62.34;100824.28;3584017;39;20048;-68
2023/06/20 06:21:19;;;;;;;5.47;4.25;;;;;;;23.80;62.19;100814.50;3585045;39;20063;-69
2023/06/20 06:23:47;;;;;;;7.85;5.15;;;;;;;23.94;61.56;100809.28;3585234;39;20122;-69
2023/06/20 06:26:13;;;;;;;7.38;5.13;;;;;;;24.05;61.50;100811.59;3582950;39;20059;-68
2023/06/20 06:28:38;;;;;;;6.85;5.00;;;;;;;24.14;61.02;100805.00;3581259;39;20371;-69
2023/06/20 06:31:15;;;;;;;5.70;5.20;;;;;;;24.21;60.39;100795.00;3584520;39;20047;-68
2023/06/20 06:33:42;;;;;;;5.68;5.22;;;;;;;24.30;60.56;100809.50;3584251;39;20442;-68
2023/06/20 06:36:09;;;;;;;5.20;4.78;;;;;;;24.44;60.35;100819.72;3583623;39;20043;-68
2023/06/20 06:38:35;;;;;;;5.70;5.18;;;;;;;24.51;60.53;100825.31;3588111;39;20110;-69
2023/06/20 06:41:01;;;;;;;6.15;5.55;;;;;;;24.31;59.71;100779.09;3582038;39;20114;-68
2023/06/20 06:43:27;;;;;;;6.40;5.80;;;;;;;24.66;59.46;100820.69;3580127;39;20291;-68
2023/06/20 06:45:53;;;;;;;6.13;5.53;;;;;;;24.61;59.59;100794.81;3581955;39;20059;-69
2023/06/20 06:48:19;;;;;;;6.38;5.38;;;;;;;24.85;59.27;100812.97;3580897;39;20086;-69
2023/06/20 06:50:45;;;;;;;5.03;4.63;;;;;;;24.98;59.04;100810.41;3580953;39;20064;-68
2023/06/20 06:53:11;;;;;;;5.60;4.97;;;;;;;25.10;58.50;100806.13;3582066;39;20515;-68
2023/06/20 06:55:37;;;;;;;5.63;5.05;;;;;;;25.14;57.84;100796.47;3579809;39;20064;-68
2023/06/20 06:58:03;;;;;;;7.18;5.35;;;;;;;25.34;58.05;100813.28;3579758;39;20366;-68
2023/06/20 07:00:29;;;;;;;5.70;5.18;;;;;;;25.43;57.41;100823.09;3583214;39;20639;-68
2023/06/20 07:02:54;;;;;;;6.72;5.68;;;;;;;25.50;57.42;100814.94;3582309;39;20051;-69
2023/06/20 07:05:20;;;;;;;5.43;4.90;;;;;;;25.64;56.43;100815.94;3580745;39;20059;-68
2023/06/20 07:07:46;;;;;;;6.63;5.38;;;;;;;25.48;56.62;100776.59;3578440;39;20067;-69
2023/06/20 07:10:11;;;;;;;7.15;5.78;;;;;;;25.71;55.95;100809.47;3582153;39;20067;-69
2023/06/20 07:12:37;;;;;;;6.40;5.80;;;;;;;25.71;55.81;100814.97;3586369;39;20152;-69
2023/06/20 07:15:04;;;;;;;7.50;6.55;;;;;;;25.68;56.32;100809.00;3571737;39;20105;-69
2023/06/20 07:17:29;;;;;;;7.85;6.53;;;;;;;25.80;57.47;100806.59;3584441;39;20461;-69
2023/06/20 07:19:55;;;;;;;12.82;6.13;;;;;;;25.91;55.56;100803.34;3583300;39;20051;-69
2023/06/20 07:22:22;;;;;;;5.88;5.28;;;;;;;25.99;54.93;100799.63;3588017;39;20052;-69
2023/06/20 07:24:48;;;;;;;6.43;5.10;;;;;;;26.06;55.33;100806.91;3582128;39;20299;-69
2023/06/20 07:27:14;;;;;;;6.20;5.60;;;;;;;26.23;55.66;100801.09;3581960;39;20063;-69
2023/06/20 07:29:41;;;;;;;5.55;4.82;;;;;;;26.29;54.48;100801.19;3583151;39;20056;-68
2023/06/20 07:32:06;;;;;;;5.18;4.60;;;;;;;26.37;54.98;100794.69;3581914;39;20058;-68
2023/06/20 07:34:32;;;;;;;5.78;5.22;;;;;;;26.49;54.26;100793.13;3585316;39;20414;-68
2023/06/20 07:36:58;;;;;;;6.07;5.47;;;;;;;26.63;53.56;100791.31;3572600;39;20063;-68
2023/06/20 07:39:24;;;;;;;5.95;5.35;;;;;;;26.75;53.15;100781.41;3584759;39;21701;-68
2023/06/20 07:41:49;;;;;;;7.90;5.85;;;;;;;26.85;53.31;100786.56;3580192;39;20130;-66
2023/06/20 07:44:15;;;;;;;5.82;5.25;;;;;;;26.91;53.04;100782.16;3572696;40;20115;-67
2023/06/20 07:46:41;;;;;;;5.53;4.68;;;;;;;26.96;52.64;100786.00;3583137;39;20369;-67
2023/06/20 07:49:06;;;;;;;6.18;4.68;;;;;;;26.98;52.72;100792.16;3581184;40;20052;-67
2023/06/20 07:51:36;;;;;;;5.25;4.75;;;;;;;27.05;52.95;100806.00;3581731;39;20108;-68
2023/06/20 07:54:05;;;;;;;5.53;4.70;;;;;;;27.21;51.82;100810.34;3579816;39;21089;-68
2023/06/20 07:56:31;;;;;;;5.65;4.65;;;;;;;27.30;53.38;100798.09;3574885;39;20064;-69
2023/06/20 07:58:56;;;;;;;5.88;5.22;;;;;;;27.34;51.06;100806.81;3579905;39;20298;-67
2023/06/20 08:01:22;;;;;;;6.90;5.40;;;;;;;27.24;52.41;100809.94;3581177;39;20071;-68
2023/06/20 08:03:48;;;;;;;6.35;5.60;;;;;;;27.01;53.31;100777.13;3578806;40;20550;-68
2023/06/20 08:06:14;;;;;;;6.35;5.32;;;;;;;27.28;52.33;100787.25;3578565;40;20513;-68
2023/06/20 08:08:40;;;;;;;5.75;5.25;;;;;;;27.42;53.68;100792.84;3581070;39;20068;-68
2023/06/20 08:11:05;;;;;;;5.00;4.50;;;;;;;27.60;52.82;100786.75;3579722;39;20063;-68
2023/06/20 08:13:31;;;;;;;4.93;4.50;;;;;;;27.77;50.85;100793.63;3581757;39;20429;-69
2023/06/20 08:15:58;;;;;;;4.47;4.07;;;;;;;27.76;50.37;100789.13;3582660;39;21664;-68
2023/06/20 08:18:23;;;;;;;4.88;4.47;;;;;;;27.79;51.36;100780.47;3579754;39;20063;-68
2023/06/20 08:20:49;;;;;;;5.07;4.47;;;;;;;27.20;50.69;100690.81;3582440;39;20052;-68
2023/06/20 08:23:23;;;;;;;4.50;3.83;;;;;;;27.85;50.31;100790.69;3579545;39;20489;-68
2023/06/20 08:25:48;;;;;;;4.85;3.70;;;;;;;27.79;50.31;100793.44;3577758;39;20064;-68
2023/06/20 08:28:14;;;;;;;5.43;3.85;;;;;;;27.79;50.20;100790.66;3580065;39;20063;-68
2023/06/20 08:30:39;;;;;;;6.13;3.75;;;;;;;27.82;49.94;100791.09;3578431;40;20074;-68
2023/06/20 08:33:05;;;;;;;3.95;3.65;;;;;;;28.00;51.29;100791.34;3579345;39;20598;-68
2023/06/20 08:35:30;;;;;;;4.22;3.83;;;;;;;28.12;50.28;100791.53;3579209;39;20060;-68
2023/06/20 08:37:56;;;;;;;4.30;4.00;;;;;;;28.26;49.74;100784.13;3578732;39;20345;-68
2023/06/20 08:40:22;;;;;;;4.85;4.35;;;;;;;28.33;50.05;100790.50;3578501;39;20185;-68
2023/06/20 08:42:47;;;;;;;3.78;3.47;;;;;;;28.41;48.51;100789.47;3581258;39;20056;-69
2023/06/20 08:45:16;;;;;;;4.22;3.83;;;;;;;28.58;49.29;100795.44;3579860;39;20073;-69
2023/06/20 08:47:41;;;;;;;4.68;3.83;;;;;;;28.67;48.09;100794.13;3577674;39;20478;-69
2023/06/20 08:50:08;;;;;;;4.85;3.90;;;;;;;28.76;48.09;100795.59;3582572;39;20066;-69
2023/06/20 08:52:47;;;;;;;5.97;3.42;;;;;;;28.69;48.27;100792.00;3582780;39;20489;-68
2023/06/20 08:55:16;;;;;;;4.13;3.72;;;;;;;28.59;47.87;100783.28;3584125;39;20067;-68
2023/06/20 08:57:45;;;;;;;4.88;3.70;;;;;;;28.64;49.05;100775.19;3578558;39;20115;-69
2023/06/20 09:00:17;;;;;;;4.32;3.92;;;;;;;28.78;48.16;100773.25;3580839;39;20226;-68
2023/06/20 09:02:42;;;;;;;4.10;3.80;;;;;;;28.92;47.63;100780.44;3581524;39;20051;-68
2023/06/20 09:05:08;;;;;;;4.43;3.85;;;;;;;29.06;47.80;100767.47;3570887;40;20051;-68
2023/06/20 09:07:39;;;;;;;5.05;3.88;;;;;;;29.19;47.50;100778.50;3579725;39;20056;-69
2023/06/20 09:10:07;;;;;;;4.10;3.70;;;;;;;29.40;46.36;100782.88;3576517;39;20052;-68
2023/06/20 09:12:47;;;;;;;4.70;3.92;;;;;;;29.40;45.84;100785.63;3585061;39;20051;-68
2023/06/20 09:15:15;;;;;;;4.88;3.63;;;;;;;29.54;47.79;100778.97;3583404;39;20052;-68
2023/06/20 09:17:45;;;;;;;4.72;3.60;;;;;;;29.75;45.95;100780.59;3582952;39;20152;-68
2023/06/20 09:20:15;;;;;;;3.97;3.58;;;;;;;29.66;45.75;100787.47;3583856;39;20056;-69
2023/06/20 09:22:42;;;;;;;4.40;3.53;;;;;;;29.65;46.53;100779.38;3585366;39;20067;-68
2023/06/20 09:25:10;;;;;;;3.33;3.10;;;;;;;29.92;44.86;100794.78;3584542;39;21520;-69
2023/06/20 09:27:40;;;;;;;4.18;3.10;;;;;;;30.00;44.54;100807.50;3583404;39;20056;-69
2023/06/20 09:30:07;;;;;;;3.40;3.20;;;;;;;30.23;44.59;100798.66;3579585;39;20122;-68
2023/06/20 09:32:40;;;;;;;3.85;3.22;;;;;;;30.43;44.51;100799.31;3581698;39;20402;-69
2023/06/20 09:35:09;;;;;;;3.60;3.28;;;;;;;30.50;43.48;100793.72;3580506;39;20063;-68
2023/06/20 09:37:44;;;;;;;3.42;3.13;;;;;;;30.64;44.36;100797.19;3581920;39;20183;-69
2023/06/20 09:40:17;;;;;;;3.80;3.40;;;;;;;30.81;43.36;100805.84;3579783;39;20288;-69
2023/06/20 09:42:46;;;;;;;4.05;3.60;;;;;;;30.74;43.17;100803.09;3581408;39;20397;-68
2023/06/20 09:45:17;;;;;;;4.13;3.55;;;;;;;30.88;42.71;100789.97;3573702;40;20068;-68
2023/06/20 09:47:45;;;;;;;4.65;3.45;;;;;;;30.80;42.52;100785.56;3580140;39;20063;-69
2023/06/20 09:50:16;;;;;;;3.83;3.25;;;;;;;30.88;42.54;100789.97;3580722;39;20689;-69
2023/06/20 09:53:19;;;;;;;3.28;3.00;;;;;;;31.14;42.07;100795.22;3579511;39;20048;-68
2023/06/20 09:55:45;;;;;;;3.28;2.97;;;;;;;31.05;41.61;100784.63;3578154;39;20147;-69
2023/06/20 09:58:16;;;;;;;3.72;3.15;;;;;;;31.11;41.01;100790.13;3580622;40;20052;-68
2023/06/20 10:00:44;;;;;;;3.05;2.70;;;;;;;30.63;40.82;100696.47;3580045;40;20066;-69
2023/06/20 10:03:11;;;;;;;3.30;3.00;;;;;;;31.28;41.08;100790.38;3579445;39;20066;-69
2023/06/20 10:05:38;;;;;;;3.97;2.92;;;;;;;31.39;41.53;100791.53;3577304;40;20564;-69
2023/06/20 10:08:06;;;;;;;5.60;2.97;;;;;;;31.45;39.60;100796.16;3567668;40;20492;-68
2023/06/20 10:10:31;;;;;;;2.80;2.60;;;;;;;31.39;40.01;100791.53;3580396;39;20391;-69
2023/06/20 10:12:58;;;;;;;3.38;2.60;;;;;;;31.62;40.30;100780.53;3579877;39;20128;-69
2023/06/20 10:15:25;;;;;;;3.35;3.00;;;;;;;31.64;39.73;100749.72;3579171;39;20056;-69
2023/06/20 10:17:50;;;;;;;2.75;2.50;;;;;;;32.06;40.03;100780.34;3580168;39;20314;-68
2023/06/20 10:20:33;;;;;;;2.90;2.65;;;;;;;31.98;39.28;100767.63;3581436;39;20054;-69
2023/06/20 10:23:07;;;;;;;5.28;2.60;;;;;;;32.12;38.61;100768.25;3586438;39;20311;-68
2023/06/20 10:25:34;;;;;;;2.42;2.13;;;;;;;32.20;39.54;100762.38;3580917;39;20060;-68
2023/06/20 10:28:09;;;;;;;2.70;2.50;;;;;;;31.85;38.74;100678.84;3581722;39;20491;-68
2023/06/20 10:30:48;;;;;;;3.05;2.10;;;;;;;32.33;37.17;100758.50;3579508;39;20225;-68
2023/06/20 10:33:17;;;;;;;4.15;2.20;;;;;;;32.20;37.78;100742.06;3580739;39;20063;-68
2023/06/20 10:35:55;;;;;;;2.33;1.98;;;;;;;32.27;37.19;100737.22;3581035;39;20059;-68
2023/06/20 10:38:21;;;;;;;1.95;1.83;;;;;;;32.39;36.04;100738.06;3580975;39;20310;-68
2023/06/20 10:40:47;;;;;;;2.10;1.90;;;;;;;32.33;35.68;100742.66;3583549;39;20043;-68
2023/06/20 10:43:18;;;;;;;1.98;1.88;;;;;;;32.41;35.59;100738.66;3582862;39;20048;-68
2023/06/20 10:45:59;;;;;;;2.30;2.10;;;;;;;32.42;36.81;100740.38;3580271;39;20055;-68
2023/06/20 10:48:26;;;;;;;2.65;2.10;;;;;;;32.58;36.69;100733.25;3567036;40;20100;-68
2023/06/20 10:50:59;;;;;;;2.20;2.08;;;;;;;32.70;37.09;100733.22;3581836;39;20059;-68
2023/06/20 10:53:28;;;;;;;1.80;1.70;;;;;;;33.02;37.07;100736.50;3584340;39;20525;-68
2023/06/20 10:55:54;;;;;;;2.22;2.03;;;;;;;33.34;37.45;100722.94;3582686;39;20071;-68
2023/06/20 10:58:19;;;;;;;2.63;2.20;;;;;;;33.54;35.38;100735.63;3580762;39;21039;-68
2023/06/20 11:00:45;;;;;;;3.55;2.10;;;;;;;33.53;33.56;100731.16;3577854;39;20078;-68
2023/06/20 11:03:11;;;;;;;2.00;1.90;;;;;;;33.57;36.30;100726.75;3581628;39;20129;-68
2023/06/20 11:05:37;;;;;;;2.20;2.10;;;;;;;33.66;35.09;100717.75;3584626;39;20063;-68
2023/06/20 11:08:10;;;;;;;2.10;1.90;;;;;;;33.78;33.58;100712.09;3583705;39;20096;-68
2023/06/20 11:10:38;;;;;;;1.83;1.70;;;;;;;33.22;34.18;100627.41;3583847;39;20056;-68
2023/06/20 11:13:07;;;;;;;2.10;1.90;;;;;;;33.84;33.87;100719.47;3586517;39;20144;-68
2023/06/20 11:15:35;;;;;;;2.22;1.90;;;;;;;33.82;33.42;100721.66;3585630;39;20047;-68
2023/06/20 11:18:05;;;;;;;2.00;1.90;;;;;;;33.80;33.51;100718.25;3581363;39;20216;-68
2023/06/20 11:20:35;;;;;;;2.22;2.03;;;;;;;33.81;33.60;100719.09;3582186;39;20119;-67
2023/06/20 11:23:04;;;;;;;1.85;1.75;;;;;;;33.86;32.68;100699.69;3582748;39;20067;-68